createdAt,value
2022-10-08T00:00:03.141Z,12.00
2022-10-08T00:02:33.174Z,12.00
2022-10-08T00:05:03.111Z,12.00
2022-10-08T00:07:35.685Z,11.90
2022-10-08T00:10:06.332Z,11.80
2022-10-08T00:12:36.305Z,11.70
2022-10-08T00:15:07.258Z,11.80
2022-10-08T00:17:37.269Z,11.90
2022-10-08T00:20:07.408Z,11.90
2022-10-08T00:22:37.400Z,12.00
2022-10-08T00:25:10.189Z,12.10
2022-10-08T00:27:40.297Z,12.20
2022-10-08T00:30:09.734Z,12.20
2022-10-08T00:32:39.856Z,12.20
2022-10-08T00:35:10.814Z,12.20
2022-10-08T00:37:40.780Z,12.20
2022-10-08T00:40:14.692Z,12.20
2022-10-08T00:42:47.577Z,12.10
2022-10-08T00:45:18.740Z,12.10
2022-10-08T00:47:49.888Z,12.10
2022-10-08T00:50:24.772Z,12.10
2022-10-08T00:52:58.097Z,12.10
2022-10-08T00:55:30.086Z,12.00
2022-10-08T00:58:06.131Z,11.90
2022-10-08T01:00:36.025Z,11.80
2022-10-08T01:03:06.259Z,11.70
2022-10-08T01:05:55.542Z,11.60
2022-10-08T01:08:34.773Z,11.60
2022-10-08T01:11:18.919Z,11.60
2022-10-08T01:13:57.381Z,11.60
2022-10-08T01:16:44.701Z,11.60
2022-10-08T01:19:28.200Z,11.70
2022-10-08T01:22:07.713Z,11.90
2022-10-08T01:25:04.362Z,12.00
2022-10-08T01:27:41.585Z,12.20
2022-10-08T01:30:16.095Z,12.20
2022-10-08T01:32:50.298Z,12.20
2022-10-08T01:35:27.918Z,12.30
2022-10-08T01:38:01.646Z,12.30
2022-10-08T01:40:35.199Z,12.40
2022-10-08T01:43:09.790Z,12.50
2022-10-08T01:45:43.219Z,12.60
2022-10-08T01:48:21.227Z,12.60
2022-10-08T01:50:56.555Z,12.50
2022-10-08T01:53:31.013Z,12.40
2022-10-08T01:56:03.682Z,12.40
2022-10-08T01:58:40.236Z,12.30
2022-10-08T02:01:16.131Z,12.30
2022-10-08T02:04:06.200Z,12.20
2022-10-08T02:06:40.089Z,12.20
2022-10-08T02:09:11.669Z,12.20
2022-10-08T02:11:41.689Z,12.20
2022-10-08T02:14:13.043Z,12.30
2022-10-08T02:16:49.323Z,12.30
2022-10-08T02:19:26.181Z,12.20
2022-10-08T02:22:07.850Z,12.20
2022-10-08T02:24:47.102Z,12.20
2022-10-08T02:27:19.152Z,12.20
2022-10-08T02:29:59.317Z,12.30
2022-10-08T02:32:34.860Z,12.40
2022-10-08T02:35:09.243Z,12.40
2022-10-08T02:37:45.211Z,12.40
2022-10-08T02:40:18.659Z,12.60
2022-10-08T02:42:53.961Z,12.60
2022-10-08T02:45:29.079Z,12.70
2022-10-08T02:48:05.372Z,12.60
2022-10-08T02:50:37.331Z,12.60
2022-10-08T02:53:07.673Z,12.50
2022-10-08T02:55:45.612Z,12.50
2022-10-08T02:58:18.479Z,12.40
2022-10-08T03:01:00.790Z,12.40
2022-10-08T03:03:33.648Z,12.30
2022-10-08T03:06:07.786Z,12.30
2022-10-08T03:08:41.458Z,12.30
2022-10-08T03:11:12.075Z,12.30
2022-10-08T03:13:46.711Z,12.30
2022-10-08T03:16:22.316Z,12.30
2022-10-08T03:18:54.008Z,12.30
2022-10-08T03:21:22.521Z,12.10
2022-10-08T03:23:52.514Z,12.00
2022-10-08T03:26:22.314Z,11.90
2022-10-08T03:28:52.965Z,11.80
2022-10-08T03:31:24.226Z,11.70
2022-10-08T03:33:54.561Z,11.70
2022-10-08T03:36:26.003Z,11.70
2022-10-08T03:38:55.925Z,11.70
2022-10-08T03:41:31.263Z,11.60
2022-10-08T03:44:01.450Z,11.60
2022-10-08T03:46:32.856Z,11.60
2022-10-08T03:49:02.931Z,11.60
2022-10-08T03:51:33.088Z,11.60
2022-10-08T03:54:02.943Z,11.60
2022-10-08T03:56:33.354Z,11.60
2022-10-08T03:59:03.746Z,11.60
2022-10-08T04:01:35.743Z,11.60
2022-10-08T04:04:05.657Z,11.50
2022-10-08T04:06:35.825Z,11.50
2022-10-08T04:09:06.251Z,11.30
2022-10-08T04:11:36.171Z,11.30
2022-10-08T04:14:08.985Z,11.20
2022-10-08T04:16:40.248Z,11.20
2022-10-08T04:19:11.428Z,11.20
2022-10-08T04:21:41.578Z,11.20
2022-10-08T04:24:12.253Z,11.20
2022-10-08T04:26:42.130Z,11.20
2022-10-08T04:29:13.176Z,11.20
2022-10-08T04:31:44.494Z,11.20
2022-10-08T04:34:15.258Z,11.20
2022-10-08T04:36:45.176Z,11.30
2022-10-08T04:39:15.014Z,11.30
2022-10-08T04:41:43.186Z,11.30
2022-10-08T04:44:13.069Z,11.20
2022-10-08T04:46:44.288Z,11.20
2022-10-08T04:49:14.328Z,11.20
2022-10-08T04:51:44.322Z,11.10
2022-10-08T04:54:14.377Z,11.10
2022-10-08T04:56:46.230Z,11.10
2022-10-08T04:59:16.008Z,11.10
2022-10-08T05:01:47.876Z,11.00
2022-10-08T05:04:17.941Z,11.00
2022-10-08T05:06:47.877Z,11.00
2022-10-08T05:09:18.110Z,11.00
2022-10-08T05:11:48.354Z,11.10
2022-10-08T05:14:18.923Z,11.00
2022-10-08T05:16:51.616Z,11.00
2022-10-08T05:19:21.615Z,10.90
2022-10-08T05:21:51.425Z,10.90
2022-10-08T05:24:24.625Z,10.80
2022-10-08T05:26:58.373Z,10.80
2022-10-08T05:29:30.453Z,10.70
2022-10-08T05:32:01.624Z,10.70
2022-10-08T05:34:31.852Z,10.70
2022-10-08T05:37:01.575Z,10.70
2022-10-08T05:39:31.585Z,10.60
2022-10-08T05:42:01.486Z,10.50
2022-10-08T05:44:36.110Z,10.50
2022-10-08T05:47:09.093Z,10.50
2022-10-08T05:49:39.246Z,10.40
2022-10-08T05:52:09.330Z,10.50
2022-10-08T05:54:41.915Z,10.50
2022-10-08T05:57:14.512Z,10.30
2022-10-08T05:59:44.561Z,10.20
2022-10-08T06:02:16.190Z,10.20
2022-10-08T06:04:46.801Z,10.20
2022-10-08T06:07:16.728Z,10.20
2022-10-08T06:09:48.085Z,10.20
2022-10-08T06:12:17.888Z,10.30
2022-10-08T06:14:47.914Z,10.40
2022-10-08T06:17:21.723Z,10.40
2022-10-08T06:19:51.721Z,10.50
2022-10-08T06:22:21.647Z,10.50
2022-10-08T06:24:54.231Z,10.40
2022-10-08T06:27:24.324Z,10.40
2022-10-08T06:29:54.369Z,10.40
2022-10-08T06:32:25.724Z,10.50
2022-10-08T06:34:55.819Z,10.70
2022-10-08T06:37:25.732Z,10.70
2022-10-08T06:39:57.250Z,10.70
2022-10-08T06:42:28.352Z,10.70
2022-10-08T06:45:02.055Z,10.80
2022-10-08T06:47:45.892Z,10.80
2022-10-08T06:50:16.186Z,10.80
2022-10-08T06:52:50.645Z,10.70
2022-10-08T06:58:03.620Z,10.80
2022-10-08T07:00:35.040Z,10.80
2022-10-08T07:03:06.466Z,10.90
2022-10-08T07:05:36.378Z,10.90
2022-10-08T07:08:08.737Z,10.90
2022-10-08T07:10:38.788Z,10.90
2022-10-08T07:13:08.430Z,10.90
2022-10-08T07:15:38.518Z,11.00
2022-10-08T07:18:12.300Z,11.00
2022-10-08T07:20:41.834Z,11.00
2022-10-08T07:23:11.819Z,11.10
2022-10-08T07:25:41.691Z,11.10
2022-10-08T07:28:12.880Z,11.10
2022-10-08T07:30:42.596Z,11.30
2022-10-08T07:33:16.911Z,11.50
2022-10-08T07:35:50.851Z,11.70
2022-10-08T07:38:20.933Z,11.70
2022-10-08T07:40:54.971Z,11.80
2022-10-08T07:43:30.821Z,12.00
2022-10-08T07:46:00.878Z,12.20
2022-10-08T07:48:34.228Z,12.10
2022-10-08T07:51:09.164Z,12.10
2022-10-08T07:53:45.073Z,12.00
2022-10-08T07:56:16.629Z,12.00
2022-10-08T07:58:52.852Z,12.00
2022-10-08T08:01:31.696Z,11.90
2022-10-08T08:04:06.141Z,12.10
2022-10-08T08:06:40.820Z,12.30
2022-10-08T08:09:11.252Z,12.50
2022-10-08T08:11:41.965Z,12.60
2022-10-08T08:14:11.994Z,12.70
2022-10-08T08:16:42.442Z,12.90
2022-10-08T08:19:13.616Z,13.10
2022-10-08T08:21:43.629Z,13.50
2022-10-08T08:24:15.257Z,13.80
2022-10-08T08:26:45.670Z,13.80
2022-10-08T08:29:17.935Z,13.70
2022-10-08T08:31:50.022Z,13.60
2022-10-08T08:34:23.134Z,13.80
2022-10-08T08:36:54.750Z,14.10
2022-10-08T08:39:26.009Z,14.40
2022-10-08T08:42:09.826Z,14.80
2022-10-08T08:44:46.764Z,14.80
2022-10-08T08:47:19.503Z,14.80
2022-10-08T08:49:53.513Z,15.30
2022-10-08T08:52:25.668Z,15.60
2022-10-08T08:54:58.960Z,15.70
2022-10-08T08:57:35.151Z,15.80
2022-10-08T09:00:08.572Z,16.00
2022-10-08T09:02:49.286Z,16.00
2022-10-08T09:05:23.096Z,16.10
2022-10-08T09:07:58.958Z,15.50
2022-10-08T09:10:39.612Z,15.50
2022-10-08T09:13:16.551Z,15.40
2022-10-08T09:15:47.058Z,15.40
2022-10-08T09:18:18.292Z,15.20
2022-10-08T09:20:49.851Z,15.30
2022-10-08T09:23:22.299Z,15.50
2022-10-08T09:26:03.612Z,15.10
2022-10-08T09:28:45.744Z,15.30
2022-10-08T09:31:20.650Z,15.10
2022-10-08T09:34:00.868Z,15.00
2022-10-08T09:36:36.825Z,14.90
2022-10-08T09:39:17.029Z,14.80
2022-10-08T09:41:48.492Z,14.90
2022-10-08T09:44:19.875Z,15.30
2022-10-08T09:46:53.229Z,15.40
2022-10-08T09:49:31.082Z,15.50
2022-10-08T09:52:06.589Z,15.50
2022-10-08T09:54:42.304Z,15.60
2022-10-08T09:57:15.929Z,15.60
2022-10-08T09:59:54.102Z,15.40
2022-10-08T10:02:31.481Z,15.40
2022-10-08T10:05:03.979Z,15.40
2022-10-08T10:07:43.970Z,15.40
2022-10-08T10:10:21.849Z,15.40
2022-10-08T10:12:54.342Z,15.30
2022-10-08T10:15:33.521Z,15.10
2022-10-08T10:18:12.586Z,15.00
2022-10-08T10:20:46.895Z,15.00
2022-10-08T10:23:22.628Z,15.20
2022-10-08T10:25:58.350Z,15.00
2022-10-08T10:28:43.596Z,15.00
2022-10-08T10:31:18.683Z,15.00
2022-10-08T10:33:57.278Z,14.90
2022-10-08T10:36:32.607Z,14.70
2022-10-08T10:39:14.136Z,14.80
2022-10-08T10:41:57.171Z,14.90
2022-10-08T10:44:35.431Z,15.00
2022-10-08T10:47:06.471Z,15.00
2022-10-08T10:49:38.358Z,15.00
2022-10-08T10:52:31.865Z,15.20
2022-10-08T10:55:25.164Z,15.40
2022-10-08T10:58:11.418Z,15.70
2022-10-08T11:00:52.853Z,16.00
2022-10-08T11:03:30.488Z,16.10
2022-10-08T11:06:13.508Z,16.10
2022-10-08T11:08:57.359Z,16.00
2022-10-08T11:11:37.337Z,15.90
2022-10-08T11:14:22.430Z,15.80
2022-10-08T11:17:01.295Z,15.70
2022-10-08T11:19:43.106Z,15.70
2022-10-08T11:22:21.929Z,15.70
2022-10-08T11:25:02.743Z,15.60
2022-10-08T11:27:43.771Z,15.50
2022-10-08T11:30:15.491Z,15.50
2022-10-08T11:32:50.924Z,15.50
2022-10-08T11:35:27.080Z,15.40
2022-10-08T11:38:02.612Z,15.40
2022-10-08T11:40:37.952Z,15.30
2022-10-08T11:43:15.644Z,15.40
2022-10-08T11:45:49.837Z,15.50
2022-10-08T11:48:34.927Z,15.60
2022-10-08T11:51:35.025Z,15.60
2022-10-08T11:54:16.438Z,15.60
2022-10-08T11:56:47.544Z,15.60
2022-10-08T11:59:37.853Z,15.60
2022-10-08T12:02:21.958Z,15.60
2022-10-08T12:04:55.201Z,15.40
2022-10-08T12:07:37.180Z,15.30
2022-10-08T12:10:47.382Z,15.30
2022-10-08T12:13:27.725Z,15.20
2022-10-08T12:16:08.347Z,15.20
2022-10-08T12:18:47.729Z,15.10
2022-10-08T12:21:52.536Z,15.00
2022-10-08T12:24:59.557Z,15.00
2022-10-08T12:27:42.066Z,15.10
2022-10-08T12:30:16.731Z,15.30
2022-10-08T12:33:06.565Z,15.50
2022-10-08T12:35:40.267Z,15.60
2022-10-08T12:38:21.187Z,15.70
2022-10-08T12:41:01.007Z,15.70
2022-10-08T12:43:40.033Z,15.80
2022-10-08T12:46:20.365Z,15.80
2022-10-08T12:48:59.092Z,15.70
2022-10-08T12:51:46.948Z,15.80
2022-10-08T12:54:23.295Z,16.00
2022-10-08T12:57:01.932Z,16.10
2022-10-08T12:59:35.410Z,16.20
2022-10-08T13:02:05.287Z,16.20
2022-10-08T13:04:37.106Z,16.10
2022-10-08T13:07:25.554Z,16.00
2022-10-08T13:10:00.460Z,16.10
2022-10-08T13:12:46.773Z,16.00
2022-10-08T13:15:26.312Z,16.00
2022-10-08T13:18:08.977Z,15.90
2022-10-08T13:20:40.516Z,16.00
2022-10-08T13:23:27.301Z,16.10
2022-10-08T13:25:59.238Z,16.10
2022-10-08T13:28:58.727Z,16.00
2022-10-08T13:31:25.351Z,15.90
2022-10-08T13:33:55.534Z,15.80
2022-10-08T13:36:26.980Z,15.70
2022-10-08T13:38:59.640Z,15.70
2022-10-08T13:41:32.667Z,15.70
2022-10-08T13:44:06.466Z,15.60
2022-10-08T13:46:38.976Z,15.80
2022-10-08T13:49:22.647Z,15.80
2022-10-08T13:51:57.200Z,15.80
2022-10-08T13:54:28.957Z,15.70
2022-10-08T13:56:59.769Z,15.80
2022-10-08T13:59:30.972Z,15.80
2022-10-08T14:02:00.251Z,15.80
2022-10-08T14:04:30.057Z,15.90
2022-10-08T14:07:09.460Z,16.00
2022-10-08T14:09:42.253Z,16.10
2022-10-08T14:12:27.353Z,16.30
2022-10-08T14:14:57.532Z,16.40
2022-10-08T14:17:27.876Z,16.40
2022-10-08T14:20:01.674Z,16.50
2022-10-08T14:22:42.055Z,16.40
2022-10-08T14:25:22.218Z,16.40
2022-10-08T14:27:56.832Z,16.30
2022-10-08T14:30:41.224Z,15.90
2022-10-08T14:33:11.766Z,16.00
2022-10-08T14:35:42.769Z,16.10
2022-10-08T14:38:14.005Z,16.10
2022-10-08T14:40:47.220Z,16.00
2022-10-08T14:43:18.872Z,15.90
2022-10-08T14:45:48.644Z,15.90
2022-10-08T14:48:20.711Z,16.20
2022-10-08T14:50:53.024Z,15.90
2022-10-08T14:53:24.164Z,16.00
2022-10-08T14:56:11.496Z,15.90
2022-10-08T14:58:43.077Z,15.90
2022-10-08T15:01:15.588Z,16.10
2022-10-08T15:03:55.668Z,16.00
2022-10-08T15:06:25.784Z,16.10
2022-10-08T15:08:57.859Z,16.00
2022-10-08T15:11:27.976Z,15.90
2022-10-08T15:14:01.511Z,15.80
2022-10-08T15:16:33.709Z,15.80
2022-10-08T15:19:03.958Z,15.60
2022-10-08T15:21:35.042Z,15.70
2022-10-08T15:24:06.222Z,15.70
2022-10-08T15:26:36.252Z,15.70
2022-10-08T15:29:06.431Z,15.60
2022-10-08T15:31:39.536Z,15.50
2022-10-08T15:34:20.052Z,15.40
2022-10-08T15:36:51.494Z,15.30
2022-10-08T15:39:25.607Z,15.10
2022-10-08T15:41:56.441Z,14.90
2022-10-08T15:44:34.276Z,14.90
2022-10-08T15:47:08.683Z,15.00
2022-10-08T15:49:50.440Z,14.90
2022-10-08T15:52:22.291Z,14.80
2022-10-08T15:54:56.612Z,14.70
2022-10-08T15:57:26.364Z,14.60
2022-10-08T15:59:59.159Z,14.60
2022-10-08T16:02:29.197Z,14.50
2022-10-08T16:04:59.070Z,14.40
2022-10-08T16:07:34.607Z,14.40
2022-10-08T16:10:06.676Z,14.30
2022-10-08T16:12:39.828Z,14.30
2022-10-08T16:15:11.210Z,14.20
2022-10-08T16:17:41.046Z,14.20
2022-10-08T16:20:12.453Z,14.00
2022-10-08T16:22:44.710Z,14.00
2022-10-08T16:25:16.338Z,14.00
2022-10-08T16:27:46.296Z,13.90
2022-10-08T16:30:16.694Z,13.80
2022-10-08T16:32:46.992Z,13.60
2022-10-08T16:35:17.307Z,13.50
2022-10-08T16:37:47.261Z,13.30
2022-10-08T16:40:18.599Z,13.20
2022-10-08T16:42:49.508Z,13.00
2022-10-08T16:45:19.833Z,12.90
2022-10-08T16:47:49.545Z,12.60
2022-10-08T16:50:19.788Z,12.40
2022-10-08T16:52:48.113Z,12.30
2022-10-08T16:55:23.229Z,12.10
2022-10-08T16:57:53.199Z,12.00
2022-10-08T17:00:25.546Z,11.90
2022-10-08T17:02:55.554Z,11.80
2022-10-08T17:05:25.716Z,11.60
2022-10-08T17:07:57.767Z,11.50
2022-10-08T17:10:30.041Z,11.40
2022-10-08T17:13:00.348Z,11.20
2022-10-08T17:15:31.099Z,11.20
2022-10-08T17:18:02.037Z,11.10
2022-10-08T17:20:31.994Z,11.10
2022-10-08T17:23:02.077Z,11.00
2022-10-08T17:25:33.734Z,11.00
2022-10-08T17:28:03.398Z,11.00
2022-10-08T17:30:33.388Z,11.00
2022-10-08T17:33:03.321Z,11.00
2022-10-08T17:35:33.290Z,11.00
2022-10-08T17:38:03.167Z,11.00
2022-10-08T17:40:34.435Z,11.00
2022-10-08T17:43:04.467Z,11.00
2022-10-08T17:45:34.943Z,11.00
2022-10-08T17:48:04.746Z,11.00
2022-10-08T17:50:37.798Z,10.90
2022-10-08T17:53:07.696Z,10.90
2022-10-08T17:55:38.933Z,10.80
2022-10-08T17:58:08.552Z,10.70
2022-10-08T18:00:38.567Z,10.70
2022-10-08T18:03:10.148Z,10.70
2022-10-08T18:05:39.868Z,10.70
2022-10-08T18:08:09.881Z,10.70
2022-10-08T18:10:41.698Z,10.60
2022-10-08T18:13:11.616Z,10.60
2022-10-08T18:15:41.733Z,10.60
2022-10-08T18:18:11.794Z,10.60
2022-10-08T18:20:44.540Z,10.50
2022-10-08T18:23:14.554Z,10.50
2022-10-08T18:25:50.426Z,10.40
2022-10-08T18:28:23.444Z,10.40
2022-10-08T18:30:53.369Z,10.30
2022-10-08T18:33:24.822Z,10.30
2022-10-08T18:35:54.470Z,10.20
2022-10-08T18:38:25.249Z,10.20
2022-10-08T18:40:56.735Z,10.10
2022-10-08T18:43:26.614Z,10.00
2022-10-08T18:45:57.310Z,10.00
2022-10-08T18:48:27.868Z,9.90
2022-10-08T18:50:57.612Z,9.90
2022-10-08T18:53:30.507Z,9.80
2022-10-08T18:56:02.125Z,9.80
2022-10-08T18:58:32.432Z,9.80
2022-10-08T19:01:02.977Z,9.70
2022-10-08T19:03:33.085Z,9.60
2022-10-08T19:06:03.130Z,9.60
2022-10-08T19:08:33.332Z,9.60
2022-10-08T19:11:11.772Z,9.50
2022-10-08T19:13:41.557Z,9.40
2022-10-08T19:16:13.742Z,9.50
2022-10-08T19:18:45.797Z,9.40
2022-10-08T19:21:17.048Z,9.50
2022-10-08T19:23:47.413Z,9.40
2022-10-08T19:26:18.912Z,9.30
2022-10-08T19:28:50.911Z,9.20
2022-10-08T19:31:25.507Z,9.20
2022-10-08T19:33:57.971Z,9.00
2022-10-08T19:36:29.547Z,8.90
2022-10-08T19:39:01.918Z,8.90
2022-10-08T19:41:35.846Z,8.90
2022-10-08T19:44:06.934Z,8.90
2022-10-08T19:46:36.983Z,8.90
2022-10-08T19:49:08.786Z,8.90
2022-10-08T19:51:39.495Z,8.80
2022-10-08T19:54:09.923Z,8.80
2022-10-08T19:56:41.680Z,8.80
2022-10-08T19:59:11.783Z,8.70
2022-10-08T20:01:42.688Z,8.70
2022-10-08T20:04:13.981Z,8.70
2022-10-08T20:06:46.268Z,8.70
2022-10-08T20:09:16.973Z,8.70
2022-10-08T20:11:52.584Z,8.70
2022-10-08T20:14:22.660Z,8.70
2022-10-08T20:16:53.547Z,8.60
2022-10-08T20:19:24.157Z,8.50
2022-10-08T20:21:55.576Z,8.40
2022-10-08T20:24:25.400Z,8.40
2022-10-08T20:26:56.705Z,8.40
2022-10-08T20:29:30.800Z,8.40
2022-10-08T20:32:01.167Z,8.40
2022-10-08T20:34:35.306Z,8.30
2022-10-08T20:37:05.060Z,8.30
2022-10-08T20:39:42.276Z,8.30
2022-10-08T20:42:13.622Z,8.50
2022-10-08T20:44:44.664Z,8.50
2022-10-08T20:47:15.305Z,8.40
2022-10-08T20:49:45.533Z,8.40
2022-10-08T20:52:15.588Z,8.30
2022-10-08T20:54:47.266Z,8.20
2022-10-08T20:57:18.768Z,8.00
2022-10-08T20:59:49.256Z,7.80
2022-10-08T21:02:20.018Z,7.80
2022-10-08T21:04:49.937Z,7.90
2022-10-08T21:07:19.875Z,7.90
2022-10-08T21:09:52.521Z,7.90
2022-10-08T21:12:23.911Z,7.80
2022-10-08T21:14:53.882Z,7.80
2022-10-08T21:17:23.691Z,7.80
2022-10-08T21:19:53.625Z,7.90
2022-10-08T21:22:23.655Z,7.90
2022-10-08T21:24:53.348Z,7.90
2022-10-08T21:27:24.878Z,7.70
2022-10-08T21:29:54.983Z,7.70
2022-10-08T21:32:24.738Z,7.60
2022-10-08T21:34:54.852Z,7.50
2022-10-08T21:37:24.776Z,7.50
2022-10-08T21:39:54.854Z,7.60
2022-10-08T21:42:26.021Z,7.70
2022-10-08T21:44:55.918Z,7.70
2022-10-08T21:47:28.526Z,7.60
2022-10-08T21:49:58.560Z,7.60
2022-10-08T21:52:28.261Z,7.70
2022-10-08T21:54:58.110Z,7.70
2022-10-08T21:57:29.594Z,7.80
2022-10-08T22:00:00.241Z,7.80
2022-10-08T22:02:30.236Z,7.70
2022-10-08T22:04:59.918Z,7.70
2022-10-08T22:07:29.799Z,7.70
2022-10-08T22:09:59.793Z,7.70
2022-10-08T22:12:31.778Z,7.60
2022-10-08T22:15:01.574Z,7.60
2022-10-08T22:17:31.438Z,7.50
2022-10-08T22:20:01.599Z,7.50
2022-10-08T22:22:31.362Z,7.40
2022-10-08T22:25:01.353Z,7.40
2022-10-08T22:27:32.432Z,7.40
2022-10-08T22:30:02.077Z,7.30
2022-10-08T22:32:33.189Z,7.30
2022-10-08T22:35:03.273Z,7.20
2022-10-08T22:37:33.292Z,7.30
2022-10-08T22:40:03.582Z,7.20
2022-10-08T22:42:34.728Z,7.20
2022-10-08T22:45:05.050Z,7.20
2022-10-08T22:47:35.116Z,7.20
2022-10-08T22:50:05.908Z,7.30
2022-10-08T22:52:36.159Z,7.30
2022-10-08T22:55:06.763Z,7.30
2022-10-08T22:57:38.792Z,7.30
2022-10-08T23:00:10.714Z,7.20
2022-10-08T23:02:40.716Z,7.10
2022-10-08T23:05:11.794Z,7.10
2022-10-08T23:07:41.837Z,7.10
2022-10-08T23:10:12.838Z,7.10
2022-10-08T23:12:43.955Z,7.10
2022-10-08T23:15:14.895Z,7.10
2022-10-08T23:17:44.991Z,7.10
2022-10-08T23:20:15.258Z,7.10
2022-10-08T23:22:44.963Z,7.10
2022-10-08T23:25:14.767Z,7.10
2022-10-08T23:27:46.105Z,7.00
2022-10-08T23:30:38.477Z,7.00
2022-10-08T23:33:05.743Z,6.90
2022-10-08T23:35:35.732Z,6.90
2022-10-08T23:38:05.455Z,6.90
2022-10-08T23:40:35.791Z,6.80
2022-10-08T23:43:07.362Z,6.80
2022-10-08T23:45:37.484Z,6.80
2022-10-08T23:48:08.416Z,6.80
2022-10-08T23:50:40.468Z,6.80
2022-10-08T23:53:10.754Z,6.60
2022-10-08T23:55:41.088Z,6.50
2022-10-08T23:58:12.775Z,6.40
